Terminal Aerodrome Forecast
Issued by NWS

Home | Current Version | Previous Version | Text Only | Print | Product List | Glossary On
Versions: 1 2 3 4 5 6 7 8 9 10 11 12 13
000
FTUS44 KTSA 292328
TAFRVS
TAF
KRVS 292328Z 3000/3024 21005KT P6SM SCT060
     FM300400 04003KT P6SM SCT100 BKN250
     FM301500 06005KT P6SM BKN100
     FM301900 06007KT P6SM SCT060 SCT100=

USA.gov is the U.S. government's official web portal to all federal, state and local government web resources and services.